sensor_id;sensor_type;location;lat;lon;timestamp;P1;durP1;ratioP1;P2;durP2;ratioP2
3971;SDS011;2000;47.572;14.202;2023-08-20T00:01:04;10.40;;;6.93;;
3971;SDS011;2000;47.572;14.202;2023-08-20T00:03:31;9.33;;;5.93;;
3971;SDS011;2000;47.572;14.202;2023-08-20T00:05:58;7.20;;;6.50;;
3971;SDS011;2000;47.572;14.202;2023-08-20T00:08:25;8.33;;;6.30;;
3971;SDS011;2000;47.572;14.202;2023-08-20T00:10:52;6.53;;;5.80;;
3971;SDS011;2000;47.572;14.202;2023-08-20T00:13:19;8.40;;;6.50;;
3971;SDS011;2000;47.572;14.202;2023-08-20T00:15:46;7.63;;;6.10;;
3971;SDS011;2000;47.572;14.202;2023-08-20T00:18:13;8.47;;;7.30;;
3971;SDS011;2000;47.572;14.202;2023-08-20T00:20:40;8.50;;;7.10;;
3971;SDS011;2000;47.572;14.202;2023-08-20T00:23:07;7.50;;;6.23;;
3971;SDS011;2000;47.572;14.202;2023-08-20T00:25:35;8.23;;;6.37;;
3971;SDS011;2000;47.572;14.202;2023-08-20T00:28:02;11.40;;;6.37;;
3971;SDS011;2000;47.572;14.202;2023-08-20T00:30:29;6.53;;;5.90;;
3971;SDS011;2000;47.572;14.202;2023-08-20T00:32:56;11.77;;;6.63;;
3971;SDS011;2000;47.572;14.202;2023-08-20T00:35:23;11.60;;;5.63;;
3971;SDS011;2000;47.572;14.202;2023-08-20T00:37:50;17.23;;;6.20;;
3971;SDS011;2000;47.572;14.202;2023-08-20T00:40:17;9.13;;;6.50;;
3971;SDS011;2000;47.572;14.202;2023-08-20T00:42:44;12.47;;;6.13;;
3971;SDS011;2000;47.572;14.202;2023-08-20T00:45:11;8.63;;;7.03;;
3971;SDS011;2000;47.572;14.202;2023-08-20T00:47:38;9.70;;;5.97;;
3971;SDS011;2000;47.572;14.202;2023-08-20T00:50:05;10.33;;;7.17;;
3971;SDS011;2000;47.572;14.202;2023-08-20T00:52:33;11.80;;;6.90;;
3971;SDS011;2000;47.572;14.202;2023-08-20T00:55:08;13.13;;;7.13;;
3971;SDS011;2000;47.572;14.202;2023-08-20T00:57:37;9.90;;;7.23;;
3971;SDS011;2000;47.572;14.202;2023-08-20T01:00:05;14.03;;;7.70;;
3971;SDS011;2000;47.572;14.202;2023-08-20T01:02:36;8.83;;;5.80;;
3971;SDS011;2000;47.572;14.202;2023-08-20T01:05:04;12.80;;;6.23;;
3971;SDS011;2000;47.572;14.202;2023-08-20T01:10:34;8.40;;;5.90;;
3971;SDS011;2000;47.572;14.202;2023-08-20T01:13:19;7.63;;;6.30;;
3971;SDS011;2000;47.572;14.202;2023-08-20T01:15:46;9.40;;;6.10;;
3971;SDS011;2000;47.572;14.202;2023-08-20T01:18:13;7.37;;;6.57;;
3971;SDS011;2000;47.572;14.202;2023-08-20T01:20:41;9.90;;;6.03;;
3971;SDS011;2000;47.572;14.202;2023-08-20T01:23:19;8.03;;;7.03;;
3971;SDS011;2000;47.572;14.202;2023-08-20T01:26:13;10.47;;;7.07;;
3971;SDS011;2000;47.572;14.202;2023-08-20T01:29:08;8.20;;;5.47;;
3971;SDS011;2000;47.572;14.202;2023-08-20T01:31:37;8.30;;;6.30;;
3971;SDS011;2000;47.572;14.202;2023-08-20T01:34:05;8.67;;;5.87;;
3971;SDS011;2000;47.572;14.202;2023-08-20T01:36:32;10.40;;;7.23;;
3971;SDS011;2000;47.572;14.202;2023-08-20T01:38:58;8.50;;;6.23;;
3971;SDS011;2000;47.572;14.202;2023-08-20T01:41:25;7.60;;;6.90;;
3971;SDS011;2000;47.572;14.202;2023-08-20T01:43:52;14.40;;;7.90;;
3971;SDS011;2000;47.572;14.202;2023-08-20T01:46:19;9.80;;;8.57;;
3971;SDS011;2000;47.572;14.202;2023-08-20T01:48:46;9.87;;;7.10;;
3971;SDS011;2000;47.572;14.202;2023-08-20T01:51:13;6.80;;;6.13;;
3971;SDS011;2000;47.572;14.202;2023-08-20T01:53:40;7.40;;;6.23;;
3971;SDS011;2000;47.572;14.202;2023-08-20T01:56:13;11.27;;;6.30;;
3971;SDS011;2000;47.572;14.202;2023-08-20T01:58:40;12.43;;;7.50;;
3971;SDS011;2000;47.572;14.202;2023-08-20T02:01:07;9.10;;;7.03;;
3971;SDS011;2000;47.572;14.202;2023-08-20T02:03:36;13.53;;;7.13;;
3971;SDS011;2000;47.572;14.202;2023-08-20T02:06:04;7.57;;;5.90;;
3971;SDS011;2000;47.572;14.202;2023-08-20T02:08:31;12.30;;;5.87;;
3971;SDS011;2000;47.572;14.202;2023-08-20T02:11:01;12.00;;;6.97;;
3971;SDS011;2000;47.572;14.202;2023-08-20T02:13:29;10.53;;;6.43;;
3971;SDS011;2000;47.572;14.202;2023-08-20T02:16:00;9.20;;;7.03;;
3971;SDS011;2000;47.572;14.202;2023-08-20T02:18:28;10.03;;;7.10;;
3971;SDS011;2000;47.572;14.202;2023-08-20T02:20:55;6.50;;;5.80;;
3971;SDS011;2000;47.572;14.202;2023-08-20T02:23:22;7.67;;;6.70;;
3971;SDS011;2000;47.572;14.202;2023-08-20T02:25:49;8.50;;;6.73;;
3971;SDS011;2000;47.572;14.202;2023-08-20T02:28:16;18.90;;;7.53;;
3971;SDS011;2000;47.572;14.202;2023-08-20T02:30:44;10.23;;;6.43;;
3971;SDS011;2000;47.572;14.202;2023-08-20T02:33:12;14.63;;;6.37;;
3971;SDS011;2000;47.572;14.202;2023-08-20T02:35:39;8.43;;;6.67;;
3971;SDS011;2000;47.572;14.202;2023-08-20T02:38:06;10.17;;;6.97;;
3971;SDS011;2000;47.572;14.202;2023-08-20T02:40:38;12.63;;;7.67;;
3971;SDS011;2000;47.572;14.202;2023-08-20T02:43:06;9.23;;;6.80;;
3971;SDS011;2000;47.572;14.202;2023-08-20T02:45:33;8.33;;;6.50;;
3971;SDS011;2000;47.572;14.202;2023-08-20T02:48:00;7.67;;;6.33;;
3971;SDS011;2000;47.572;14.202;2023-08-20T02:50:27;8.93;;;6.40;;
3971;SDS011;2000;47.572;14.202;2023-08-20T02:52:54;7.30;;;6.00;;
3971;SDS011;2000;47.572;14.202;2023-08-20T02:55:21;9.33;;;6.70;;
3971;SDS011;2000;47.572;14.202;2023-08-20T02:57:48;9.80;;;6.43;;
3971;SDS011;2000;47.572;14.202;2023-08-20T03:00:15;7.50;;;6.60;;
3971;SDS011;2000;47.572;14.202;2023-08-20T03:02:42;12.57;;;6.90;;
3971;SDS011;2000;47.572;14.202;2023-08-20T03:05:09;8.77;;;7.00;;
3971;SDS011;2000;47.572;14.202;2023-08-20T03:07:36;8.30;;;6.27;;
3971;SDS011;2000;47.572;14.202;2023-08-20T03:10:04;8.60;;;6.80;;
3971;SDS011;2000;47.572;14.202;2023-08-20T03:12:31;7.40;;;6.13;;
3971;SDS011;2000;47.572;14.202;2023-08-20T03:15:01;9.10;;;6.73;;
3971;SDS011;2000;47.572;14.202;2023-08-20T03:17:29;8.63;;;7.00;;
3971;SDS011;2000;47.572;14.202;2023-08-20T03:19:57;8.00;;;6.80;;
3971;SDS011;2000;47.572;14.202;2023-08-20T03:22:25;8.50;;;6.33;;
3971;SDS011;2000;47.572;14.202;2023-08-20T03:24:52;7.83;;;6.63;;
3971;SDS011;2000;47.572;14.202;2023-08-20T03:27:19;12.97;;;6.23;;
3971;SDS011;2000;47.572;14.202;2023-08-20T03:29:46;10.93;;;6.50;;
3971;SDS011;2000;47.572;14.202;2023-08-20T03:32:13;10.70;;;7.50;;
3971;SDS011;2000;47.572;14.202;2023-08-20T03:34:40;14.80;;;6.73;;
3971;SDS011;2000;47.572;14.202;2023-08-20T03:37:07;9.80;;;7.23;;
3971;SDS011;2000;47.572;14.202;2023-08-20T03:39:34;8.33;;;6.80;;
3971;SDS011;2000;47.572;14.202;2023-08-20T03:42:01;9.17;;;7.63;;
3971;SDS011;2000;47.572;14.202;2023-08-20T03:44:27;11.67;;;7.97;;
3971;SDS011;2000;47.572;14.202;2023-08-20T03:46:55;9.93;;;7.27;;
3971;SDS011;2000;47.572;14.202;2023-08-20T03:49:22;10.47;;;7.23;;
3971;SDS011;2000;47.572;14.202;2023-08-20T03:51:49;10.73;;;7.67;;
3971;SDS011;2000;47.572;14.202;2023-08-20T03:54:16;11.27;;;7.17;;
3971;SDS011;2000;47.572;14.202;2023-08-20T03:56:43;9.13;;;6.77;;
3971;SDS011;2000;47.572;14.202;2023-08-20T03:59:10;12.37;;;6.90;;
3971;SDS011;2000;47.572;14.202;2023-08-20T04:01:37;11.83;;;6.97;;
3971;SDS011;2000;47.572;14.202;2023-08-20T04:04:04;7.63;;;6.63;;
3971;SDS011;2000;47.572;14.202;2023-08-20T04:06:31;9.23;;;6.73;;
3971;SDS011;2000;47.572;14.202;2023-08-20T04:08:58;7.47;;;6.13;;
3971;SDS011;2000;47.572;14.202;2023-08-20T04:11:25;11.43;;;7.20;;
3971;SDS011;2000;47.572;14.202;2023-08-20T04:13:52;8.53;;;6.53;;
3971;SDS011;2000;47.572;14.202;2023-08-20T04:16:19;8.40;;;6.50;;
3971;SDS011;2000;47.572;14.202;2023-08-20T04:18:46;10.37;;;7.47;;
3971;SDS011;2000;47.572;14.202;2023-08-20T04:21:13;8.67;;;7.43;;
3971;SDS011;2000;47.572;14.202;2023-08-20T04:23:39;12.33;;;7.50;;
3971;SDS011;2000;47.572;14.202;2023-08-20T04:26:08;10.70;;;7.33;;
3971;SDS011;2000;47.572;14.202;2023-08-20T04:28:34;9.10;;;7.00;;
3971;SDS011;2000;47.572;14.202;2023-08-20T04:31:01;17.50;;;7.10;;
3971;SDS011;2000;47.572;14.202;2023-08-20T04:33:29;8.80;;;7.70;;
3971;SDS011;2000;47.572;14.202;2023-08-20T04:35:55;13.10;;;6.43;;
3971;SDS011;2000;47.572;14.202;2023-08-20T04:38:22;9.27;;;7.67;;
3971;SDS011;2000;47.572;14.202;2023-08-20T04:40:49;23.33;;;7.67;;
3971;SDS011;2000;47.572;14.202;2023-08-20T04:43:16;9.03;;;7.13;;
3971;SDS011;2000;47.572;14.202;2023-08-20T04:45:42;9.77;;;7.70;;
3971;SDS011;2000;47.572;14.202;2023-08-20T04:48:09;9.87;;;8.10;;
3971;SDS011;2000;47.572;14.202;2023-08-20T04:50:36;10.40;;;7.27;;
3971;SDS011;2000;47.572;14.202;2023-08-20T04:53:03;8.37;;;7.00;;
3971;SDS011;2000;47.572;14.202;2023-08-20T04:55:30;12.33;;;6.70;;
3971;SDS011;2000;47.572;14.202;2023-08-20T04:57:57;7.70;;;5.80;;
3971;SDS011;2000;47.572;14.202;2023-08-20T05:00:23;7.90;;;7.10;;
3971;SDS011;2000;47.572;14.202;2023-08-20T05:02:51;11.50;;;8.00;;
3971;SDS011;2000;47.572;14.202;2023-08-20T05:05:18;13.07;;;7.10;;
3971;SDS011;2000;47.572;14.202;2023-08-20T05:07:44;9.30;;;7.20;;
3971;SDS011;2000;47.572;14.202;2023-08-20T05:10:11;7.67;;;6.50;;
3971;SDS011;2000;47.572;14.202;2023-08-20T05:12:38;9.73;;;7.73;;
3971;SDS011;2000;47.572;14.202;2023-08-20T05:15:05;12.87;;;7.47;;
3971;SDS011;2000;47.572;14.202;2023-08-20T05:17:32;8.47;;;6.40;;
3971;SDS011;2000;47.572;14.202;2023-08-20T05:19:59;7.53;;;6.83;;
3971;SDS011;2000;47.572;14.202;2023-08-20T05:22:26;7.70;;;6.40;;
3971;SDS011;2000;47.572;14.202;2023-08-20T05:24:52;12.70;;;6.70;;
3971;SDS011;2000;47.572;14.202;2023-08-20T05:27:19;8.53;;;7.37;;
3971;SDS011;2000;47.572;14.202;2023-08-20T05:29:46;8.27;;;7.33;;
3971;SDS011;2000;47.572;14.202;2023-08-20T05:32:13;10.10;;;7.37;;
3971;SDS011;2000;47.572;14.202;2023-08-20T05:34:41;9.70;;;7.40;;
3971;SDS011;2000;47.572;14.202;2023-08-20T05:37:08;9.50;;;6.93;;
3971;SDS011;2000;47.572;14.202;2023-08-20T05:39:40;11.20;;;7.60;;
3971;SDS011;2000;47.572;14.202;2023-08-20T05:42:08;7.07;;;6.37;;
3971;SDS011;2000;47.572;14.202;2023-08-20T05:44:35;10.00;;;6.30;;
3971;SDS011;2000;47.572;14.202;2023-08-20T05:47:02;11.93;;;7.70;;
3971;SDS011;2000;47.572;14.202;2023-08-20T05:49:32;9.33;;;6.17;;
3971;SDS011;2000;47.572;14.202;2023-08-20T05:51:59;13.80;;;6.47;;
3971;SDS011;2000;47.572;14.202;2023-08-20T05:54:26;10.30;;;6.97;;
3971;SDS011;2000;47.572;14.202;2023-08-20T05:56:52;16.07;;;7.03;;
3971;SDS011;2000;47.572;14.202;2023-08-20T05:59:19;13.50;;;8.23;;
3971;SDS011;2000;47.572;14.202;2023-08-20T06:01:46;8.53;;;7.43;;
3971;SDS011;2000;47.572;14.202;2023-08-20T06:04:13;8.90;;;7.07;;
3971;SDS011;2000;47.572;14.202;2023-08-20T06:06:40;11.10;;;8.60;;
3971;SDS011;2000;47.572;14.202;2023-08-20T06:09:07;8.30;;;7.43;;
3971;SDS011;2000;47.572;14.202;2023-08-20T06:11:35;14.03;;;9.23;;
3971;SDS011;2000;47.572;14.202;2023-08-20T06:14:02;18.83;;;9.00;;
3971;SDS011;2000;47.572;14.202;2023-08-20T06:16:29;16.13;;;7.37;;
3971;SDS011;2000;47.572;14.202;2023-08-20T06:18:57;13.23;;;8.23;;
3971;SDS011;2000;47.572;14.202;2023-08-20T06:21:28;11.10;;;8.17;;
3971;SDS011;2000;47.572;14.202;2023-08-20T06:23:55;16.13;;;7.80;;
3971;SDS011;2000;47.572;14.202;2023-08-20T06:26:22;14.17;;;8.60;;
3971;SDS011;2000;47.572;14.202;2023-08-20T06:28:48;16.53;;;7.57;;
3971;SDS011;2000;47.572;14.202;2023-08-20T06:31:15;19.00;;;7.40;;
3971;SDS011;2000;47.572;14.202;2023-08-20T06:33:42;12.20;;;7.40;;
3971;SDS011;2000;47.572;14.202;2023-08-20T06:36:09;14.97;;;7.77;;
3971;SDS011;2000;47.572;14.202;2023-08-20T06:38:36;7.80;;;6.90;;
3971;SDS011;2000;47.572;14.202;2023-08-20T06:41:03;10.13;;;6.43;;
3971;SDS011;2000;47.572;14.202;2023-08-20T06:43:30;9.30;;;7.13;;
3971;SDS011;2000;47.572;14.202;2023-08-20T06:45:57;9.80;;;7.23;;
3971;SDS011;2000;47.572;14.202;2023-08-20T06:48:24;11.40;;;7.27;;
3971;SDS011;2000;47.572;14.202;2023-08-20T06:50:51;21.93;;;7.90;;
3971;SDS011;2000;47.572;14.202;2023-08-20T06:53:18;9.73;;;7.40;;
3971;SDS011;2000;47.572;14.202;2023-08-20T06:55:45;14.40;;;7.50;;
3971;SDS011;2000;47.572;14.202;2023-08-20T06:58:12;12.87;;;6.90;;
3971;SDS011;2000;47.572;14.202;2023-08-20T07:00:38;13.53;;;7.80;;
3971;SDS011;2000;47.572;14.202;2023-08-20T07:03:05;9.40;;;6.70;;
3971;SDS011;2000;47.572;14.202;2023-08-20T07:05:32;17.13;;;6.27;;
3971;SDS011;2000;47.572;14.202;2023-08-20T07:07:59;11.87;;;7.07;;
3971;SDS011;2000;47.572;14.202;2023-08-20T07:10:26;8.70;;;5.77;;
3971;SDS011;2000;47.572;14.202;2023-08-20T07:12:53;10.60;;;6.67;;
3971;SDS011;2000;47.572;14.202;2023-08-20T07:15:19;7.90;;;5.60;;
3971;SDS011;2000;47.572;14.202;2023-08-20T07:17:46;9.77;;;5.77;;
3971;SDS011;2000;47.572;14.202;2023-08-20T07:20:13;10.60;;;6.70;;
3971;SDS011;2000;47.572;14.202;2023-08-20T07:22:40;12.53;;;5.70;;
3971;SDS011;2000;47.572;14.202;2023-08-20T07:25:08;11.80;;;6.30;;
3971;SDS011;2000;47.572;14.202;2023-08-20T07:27:35;10.67;;;6.60;;
3971;SDS011;2000;47.572;14.202;2023-08-20T07:30:03;8.60;;;5.70;;
3971;SDS011;2000;47.572;14.202;2023-08-20T07:32:30;8.30;;;5.87;;
3971;SDS011;2000;47.572;14.202;2023-08-20T07:34:58;8.87;;;6.70;;
3971;SDS011;2000;47.572;14.202;2023-08-20T07:37:25;7.90;;;6.50;;
3971;SDS011;2000;47.572;14.202;2023-08-20T07:39:52;7.30;;;5.23;;
3971;SDS011;2000;47.572;14.202;2023-08-20T07:42:19;11.33;;;6.57;;
3971;SDS011;2000;47.572;14.202;2023-08-20T07:44:46;8.30;;;5.10;;
3971;SDS011;2000;47.572;14.202;2023-08-20T07:47:12;8.00;;;5.90;;
3971;SDS011;2000;47.572;14.202;2023-08-20T07:49:39;12.70;;;4.57;;
3971;SDS011;2000;47.572;14.202;2023-08-20T07:52:06;15.87;;;6.07;;
3971;SDS011;2000;47.572;14.202;2023-08-20T07:54:33;16.23;;;6.00;;
3971;SDS011;2000;47.572;14.202;2023-08-20T07:57:00;7.33;;;6.17;;
3971;SDS011;2000;47.572;14.202;2023-08-20T07:59:27;7.27;;;6.57;;
3971;SDS011;2000;47.572;14.202;2023-08-20T08:01:53;9.23;;;4.73;;
3971;SDS011;2000;47.572;14.202;2023-08-20T08:04:20;9.20;;;4.97;;
3971;SDS011;2000;47.572;14.202;2023-08-20T08:06:47;12.20;;;6.50;;
3971;SDS011;2000;47.572;14.202;2023-08-20T08:09:17;8.83;;;6.13;;
3971;SDS011;2000;47.572;14.202;2023-08-20T08:11:46;8.67;;;5.60;;
3971;SDS011;2000;47.572;14.202;2023-08-20T08:14:13;7.80;;;5.70;;
3971;SDS011;2000;47.572;14.202;2023-08-20T08:16:40;9.63;;;5.57;;
3971;SDS011;2000;47.572;14.202;2023-08-20T08:19:07;8.57;;;5.90;;
3971;SDS011;2000;47.572;14.202;2023-08-20T08:21:34;7.70;;;5.37;;
3971;SDS011;2000;47.572;14.202;2023-08-20T08:24:01;6.50;;;5.17;;
3971;SDS011;2000;47.572;14.202;2023-08-20T08:26:29;4.93;;;4.20;;
3971;SDS011;2000;47.572;14.202;2023-08-20T08:28:56;7.80;;;5.10;;
3971;SDS011;2000;47.572;14.202;2023-08-20T08:31:23;7.60;;;5.50;;
3971;SDS011;2000;47.572;14.202;2023-08-20T08:33:50;6.90;;;4.90;;
3971;SDS011;2000;47.572;14.202;2023-08-20T08:36:17;6.20;;;4.90;;
3971;SDS011;2000;47.572;14.202;2023-08-20T08:38:44;10.63;;;5.10;;
3971;SDS011;2000;47.572;14.202;2023-08-20T08:41:12;7.50;;;5.27;;
3971;SDS011;2000;47.572;14.202;2023-08-20T08:43:39;12.53;;;5.27;;
3971;SDS011;2000;47.572;14.202;2023-08-20T08:46:07;6.13;;;4.70;;
3971;SDS011;2000;47.572;14.202;2023-08-20T08:48:40;9.40;;;4.53;;
3971;SDS011;2000;47.572;14.202;2023-08-20T08:51:08;8.60;;;4.73;;
3971;SDS011;2000;47.572;14.202;2023-08-20T08:53:35;7.70;;;4.60;;
3971;SDS011;2000;47.572;14.202;2023-08-20T08:56:02;8.53;;;5.90;;
3971;SDS011;2000;47.572;14.202;2023-08-20T08:58:29;9.00;;;5.50;;
3971;SDS011;2000;47.572;14.202;2023-08-20T09:00:56;7.17;;;4.87;;
3971;SDS011;2000;47.572;14.202;2023-08-20T09:03:23;7.47;;;5.90;;
3971;SDS011;2000;47.572;14.202;2023-08-20T09:06:00;6.23;;;4.83;;
3971;SDS011;2000;47.572;14.202;2023-08-20T09:08:30;8.60;;;4.90;;
3971;SDS011;2000;47.572;14.202;2023-08-20T09:10:59;5.57;;;4.47;;
3971;SDS011;2000;47.572;14.202;2023-08-20T09:13:34;8.20;;;5.47;;
3971;SDS011;2000;47.572;14.202;2023-08-20T09:16:06;9.23;;;5.70;;
3971;SDS011;2000;47.572;14.202;2023-08-20T09:21:10;11.50;;;5.00;;
3971;SDS011;2000;47.572;14.202;2023-08-20T09:23:39;7.53;;;5.50;;
3971;SDS011;2000;47.572;14.202;2023-08-20T09:26:06;9.47;;;5.90;;
3971;SDS011;2000;47.572;14.202;2023-08-20T09:28:43;5.50;;;5.00;;
3971;SDS011;2000;47.572;14.202;2023-08-20T09:31:13;9.87;;;5.27;;
3971;SDS011;2000;47.572;14.202;2023-08-20T09:36:17;10.53;;;5.30;;
3971;SDS011;2000;47.572;14.202;2023-08-20T09:38:44;7.13;;;5.50;;
3971;SDS011;2000;47.572;14.202;2023-08-20T09:41:13;9.90;;;5.83;;
3971;SDS011;2000;47.572;14.202;2023-08-20T09:43:40;12.60;;;6.30;;
3971;SDS011;2000;47.572;14.202;2023-08-20T09:46:08;11.93;;;5.90;;
3971;SDS011;2000;47.572;14.202;2023-08-20T09:48:37;9.93;;;5.03;;
3971;SDS011;2000;47.572;14.202;2023-08-20T09:51:06;9.23;;;5.67;;
3971;SDS011;2000;47.572;14.202;2023-08-20T09:54:24;7.57;;;5.73;;
3971;SDS011;2000;47.572;14.202;2023-08-20T09:56:57;10.40;;;5.50;;
3971;SDS011;2000;47.572;14.202;2023-08-20T09:59:26;12.23;;;6.00;;
3971;SDS011;2000;47.572;14.202;2023-08-20T10:01:53;8.10;;;6.10;;
3971;SDS011;2000;47.572;14.202;2023-08-20T10:04:21;12.07;;;5.73;;
3971;SDS011;2000;47.572;14.202;2023-08-20T10:06:49;10.80;;;5.53;;
3971;SDS011;2000;47.572;14.202;2023-08-20T10:09:16;12.23;;;5.47;;
3971;SDS011;2000;47.572;14.202;2023-08-20T10:11:44;8.80;;;5.90;;
3971;SDS011;2000;47.572;14.202;2023-08-20T10:14:12;7.53;;;6.83;;
3971;SDS011;2000;47.572;14.202;2023-08-20T10:16:39;6.27;;;5.63;;
3971;SDS011;2000;47.572;14.202;2023-08-20T10:19:07;7.93;;;6.20;;
3971;SDS011;2000;47.572;14.202;2023-08-20T10:21:33;6.53;;;4.80;;
3971;SDS011;2000;47.572;14.202;2023-08-20T10:24:04;10.60;;;5.63;;
3971;SDS011;2000;47.572;14.202;2023-08-20T10:26:33;7.60;;;6.10;;
3971;SDS011;2000;47.572;14.202;2023-08-20T10:32:09;8.97;;;6.20;;
3971;SDS011;2000;47.572;14.202;2023-08-20T10:34:37;7.80;;;5.70;;
3971;SDS011;2000;47.572;14.202;2023-08-20T10:37:14;8.40;;;5.30;;
3971;SDS011;2000;47.572;14.202;2023-08-20T10:39:41;5.80;;;4.97;;
3971;SDS011;2000;47.572;14.202;2023-08-20T10:45:01;8.77;;;5.80;;
3971;SDS011;2000;47.572;14.202;2023-08-20T10:47:41;8.60;;;5.37;;
3971;SDS011;2000;47.572;14.202;2023-08-20T10:50:12;5.87;;;5.20;;
3971;SDS011;2000;47.572;14.202;2023-08-20T10:52:47;6.90;;;5.17;;
3971;SDS011;2000;47.572;14.202;2023-08-20T10:55:15;7.50;;;5.40;;
3971;SDS011;2000;47.572;14.202;2023-08-20T10:57:42;8.90;;;5.43;;
3971;SDS011;2000;47.572;14.202;2023-08-20T11:00:09;7.10;;;5.20;;
3971;SDS011;2000;47.572;14.202;2023-08-20T11:02:41;5.53;;;5.03;;
3971;SDS011;2000;47.572;14.202;2023-08-20T11:05:21;9.30;;;5.67;;
3971;SDS011;2000;47.572;14.202;2023-08-20T11:07:48;7.20;;;4.80;;
3971;SDS011;2000;47.572;14.202;2023-08-20T11:10:15;9.00;;;4.93;;
3971;SDS011;2000;47.572;14.202;2023-08-20T11:12:43;8.23;;;5.47;;
3971;SDS011;2000;47.572;14.202;2023-08-20T11:15:12;6.30;;;5.63;;
3971;SDS011;2000;47.572;14.202;2023-08-20T11:17:42;7.03;;;5.47;;
3971;SDS011;2000;47.572;14.202;2023-08-20T11:20:10;7.73;;;5.47;;
3971;SDS011;2000;47.572;14.202;2023-08-20T11:22:40;9.17;;;6.20;;
3971;SDS011;2000;47.572;14.202;2023-08-20T11:25:10;8.37;;;6.00;;
3971;SDS011;2000;47.572;14.202;2023-08-20T11:27:44;6.90;;;4.97;;
3971;SDS011;2000;47.572;14.202;2023-08-20T11:30:11;6.07;;;5.10;;
3971;SDS011;2000;47.572;14.202;2023-08-20T11:32:40;7.07;;;6.37;;
3971;SDS011;2000;47.572;14.202;2023-08-20T11:35:07;6.53;;;5.90;;
3971;SDS011;2000;47.572;14.202;2023-08-20T11:37:34;10.90;;;6.30;;
3971;SDS011;2000;47.572;14.202;2023-08-20T11:40:02;7.97;;;5.47;;
3971;SDS011;2000;47.572;14.202;2023-08-20T11:42:29;6.90;;;5.67;;
3971;SDS011;2000;47.572;14.202;2023-08-20T11:44:56;10.43;;;5.97;;
3971;SDS011;2000;47.572;14.202;2023-08-20T11:47:24;5.17;;;4.73;;
3971;SDS011;2000;47.572;14.202;2023-08-20T11:50:06;7.33;;;5.03;;
3971;SDS011;2000;47.572;14.202;2023-08-20T11:52:34;6.50;;;4.97;;
3971;SDS011;2000;47.572;14.202;2023-08-20T11:55:02;4.93;;;4.53;;
3971;SDS011;2000;47.572;14.202;2023-08-20T11:57:30;5.13;;;4.73;;
3971;SDS011;2000;47.572;14.202;2023-08-20T12:00:03;8.20;;;5.73;;
3971;SDS011;2000;47.572;14.202;2023-08-20T12:02:40;7.80;;;5.10;;
3971;SDS011;2000;47.572;14.202;2023-08-20T12:05:08;4.83;;;4.43;;
3971;SDS011;2000;47.572;14.202;2023-08-20T12:07:35;10.43;;;4.57;;
3971;SDS011;2000;47.572;14.202;2023-08-20T12:10:21;5.17;;;4.77;;
3971;SDS011;2000;47.572;14.202;2023-08-20T12:12:49;4.97;;;4.67;;
3971;SDS011;2000;47.572;14.202;2023-08-20T12:15:16;5.57;;;4.40;;
3971;SDS011;2000;47.572;14.202;2023-08-20T12:18:04;3.93;;;3.60;;
3971;SDS011;2000;47.572;14.202;2023-08-20T12:20:32;3.80;;;3.60;;
3971;SDS011;2000;47.572;14.202;2023-08-20T12:23:04;4.40;;;4.00;;
3971;SDS011;2000;47.572;14.202;2023-08-20T12:25:32;6.13;;;4.20;;
3971;SDS011;2000;47.572;14.202;2023-08-20T12:28:01;4.90;;;4.40;;
3971;SDS011;2000;47.572;14.202;2023-08-20T12:30:31;4.40;;;4.10;;
3971;SDS011;2000;47.572;14.202;2023-08-20T12:33:03;5.57;;;4.67;;
3971;SDS011;2000;47.572;14.202;2023-08-20T12:35:30;4.70;;;4.10;;
3971;SDS011;2000;47.572;14.202;2023-08-20T12:37:57;5.27;;;4.23;;
3971;SDS011;2000;47.572;14.202;2023-08-20T12:40:24;6.07;;;4.57;;
3971;SDS011;2000;47.572;14.202;2023-08-20T12:42:51;10.13;;;4.27;;
3971;SDS011;2000;47.572;14.202;2023-08-20T12:45:18;4.50;;;4.10;;
3971;SDS011;2000;47.572;14.202;2023-08-20T12:47:45;4.53;;;4.20;;
3971;SDS011;2000;47.572;14.202;2023-08-20T12:50:12;4.50;;;4.20;;
3971;SDS011;2000;47.572;14.202;2023-08-20T12:52:40;4.60;;;4.30;;
3971;SDS011;2000;47.572;14.202;2023-08-20T12:55:09;5.33;;;4.10;;
3971;SDS011;2000;47.572;14.202;2023-08-20T12:57:41;4.90;;;4.50;;
3971;SDS011;2000;47.572;14.202;2023-08-20T13:00:19;4.73;;;4.30;;
3971;SDS011;2000;47.572;14.202;2023-08-20T13:02:46;4.60;;;4.30;;
3971;SDS011;2000;47.572;14.202;2023-08-20T13:05:13;4.70;;;4.30;;
3971;SDS011;2000;47.572;14.202;2023-08-20T13:07:41;4.10;;;3.77;;
3971;SDS011;2000;47.572;14.202;2023-08-20T13:10:08;3.87;;;3.57;;
3971;SDS011;2000;47.572;14.202;2023-08-20T13:12:35;4.20;;;3.80;;
3971;SDS011;2000;47.572;14.202;2023-08-20T13:15:03;6.13;;;4.77;;
3971;SDS011;2000;47.572;14.202;2023-08-20T13:17:30;5.47;;;4.63;;
3971;SDS011;2000;47.572;14.202;2023-08-20T13:19:57;3.60;;;3.30;;
3971;SDS011;2000;47.572;14.202;2023-08-20T13:22:24;3.87;;;3.63;;
3971;SDS011;2000;47.572;14.202;2023-08-20T13:24:51;4.70;;;4.30;;
3971;SDS011;2000;47.572;14.202;2023-08-20T13:27:18;4.20;;;3.80;;
3971;SDS011;2000;47.572;14.202;2023-08-20T13:29:45;4.80;;;4.40;;
3971;SDS011;2000;47.572;14.202;2023-08-20T13:32:11;5.23;;;3.93;;
3971;SDS011;2000;47.572;14.202;2023-08-20T13:34:38;4.30;;;4.00;;
3971;SDS011;2000;47.572;14.202;2023-08-20T13:37:05;8.73;;;4.40;;
3971;SDS011;2000;47.572;14.202;2023-08-20T13:39:32;4.23;;;3.83;;
3971;SDS011;2000;47.572;14.202;2023-08-20T13:41:59;4.23;;;3.93;;
3971;SDS011;2000;47.572;14.202;2023-08-20T13:44:26;4.00;;;3.63;;
3971;SDS011;2000;47.572;14.202;2023-08-20T13:46:53;4.30;;;4.00;;
3971;SDS011;2000;47.572;14.202;2023-08-20T13:49:19;4.63;;;4.23;;
3971;SDS011;2000;47.572;14.202;2023-08-20T13:51:46;3.90;;;3.20;;
3971;SDS011;2000;47.572;14.202;2023-08-20T13:54:13;3.70;;;3.50;;
3971;SDS011;2000;47.572;14.202;2023-08-20T13:56:40;8.03;;;3.50;;
3971;SDS011;2000;47.572;14.202;2023-08-20T13:59:09;4.70;;;4.30;;
3971;SDS011;2000;47.572;14.202;2023-08-20T14:01:36;4.87;;;4.03;;
3971;SDS011;2000;47.572;14.202;2023-08-20T14:04:03;3.63;;;3.40;;
3971;SDS011;2000;47.572;14.202;2023-08-20T14:06:30;3.07;;;2.87;;
3971;SDS011;2000;47.572;14.202;2023-08-20T14:08:57;4.50;;;2.83;;
3971;SDS011;2000;47.572;14.202;2023-08-20T14:11:24;4.00;;;3.67;;
3971;SDS011;2000;47.572;14.202;2023-08-20T14:13:51;4.67;;;4.23;;
3971;SDS011;2000;47.572;14.202;2023-08-20T14:16:17;4.50;;;4.20;;
3971;SDS011;2000;47.572;14.202;2023-08-20T14:18:44;4.93;;;4.47;;
3971;SDS011;2000;47.572;14.202;2023-08-20T14:21:11;4.83;;;4.43;;
3971;SDS011;2000;47.572;14.202;2023-08-20T14:23:38;4.53;;;4.13;;
3971;SDS011;2000;47.572;14.202;2023-08-20T14:26:05;4.53;;;4.10;;
3971;SDS011;2000;47.572;14.202;2023-08-20T14:28:34;4.27;;;3.97;;
3971;SDS011;2000;47.572;14.202;2023-08-20T14:31:03;4.70;;;4.30;;
3971;SDS011;2000;47.572;14.202;2023-08-20T14:33:31;3.90;;;3.60;;
3971;SDS011;2000;47.572;14.202;2023-08-20T14:35:58;5.17;;;4.13;;
3971;SDS011;2000;47.572;14.202;2023-08-20T14:38:24;6.37;;;4.37;;
3971;SDS011;2000;47.572;14.202;2023-08-20T14:40:52;5.10;;;4.40;;
3971;SDS011;2000;47.572;14.202;2023-08-20T14:43:19;8.60;;;4.57;;
3971;SDS011;2000;47.572;14.202;2023-08-20T14:45:46;5.30;;;4.90;;
3971;SDS011;2000;47.572;14.202;2023-08-20T14:48:13;4.57;;;4.20;;
3971;SDS011;2000;47.572;14.202;2023-08-20T14:50:39;5.40;;;4.30;;
3971;SDS011;2000;47.572;14.202;2023-08-20T14:53:06;6.47;;;4.30;;
3971;SDS011;2000;47.572;14.202;2023-08-20T14:55:33;4.60;;;4.20;;
3971;SDS011;2000;47.572;14.202;2023-08-20T14:58:00;4.87;;;4.27;;
3971;SDS011;2000;47.572;14.202;2023-08-20T15:00:27;4.80;;;4.40;;
3971;SDS011;2000;47.572;14.202;2023-08-20T15:02:54;5.37;;;4.87;;
3971;SDS011;2000;47.572;14.202;2023-08-20T15:05:21;6.47;;;5.10;;
3971;SDS011;2000;47.572;14.202;2023-08-20T15:07:48;6.63;;;4.80;;
3971;SDS011;2000;47.572;14.202;2023-08-20T15:10:15;4.83;;;4.43;;
3971;SDS011;2000;47.572;14.202;2023-08-20T15:12:42;7.73;;;4.80;;
3971;SDS011;2000;47.572;14.202;2023-08-20T15:15:09;5.40;;;4.40;;
3971;SDS011;2000;47.572;14.202;2023-08-20T15:17:36;5.07;;;4.57;;